Terminal Aerodrome Forecast
Issued by NWS

Home | Current Version | Previous Version | Text Only | Print | Product List | Glossary On
Versions: 1 2 3 4 5 6 7 8 9 10 11 12 13 14 15 16 17 18
827
FTUS44 KJAN 042325
TAFGTR
TAF
KGTR 042325Z 0500/0524 27010G18KT P6SM VCSH SCT080 BKN110
     FM050100 32006KT P6SM SKC
     FM051400 34015G25KT P6SM SKC=

USA.gov is the U.S. government's official web portal to all federal, state and local government web resources and services.